sensor_id;sensor_type;location;lat;lon;timestamp;P1;durP1;ratioP1;P2;durP2;ratioP2
69795;SDS011;57073;45.650;9.612;2022-11-18T00:06:55;27.63;;;16.90;;
69795;SDS011;57073;45.650;9.612;2022-11-18T00:26:59;30.73;;;17.90;;
69795;SDS011;57073;45.650;9.612;2022-11-18T00:36:59;33.77;;;18.33;;
69795;SDS011;57073;45.650;9.612;2022-11-18T00:47:00;31.85;;;17.75;;
69795;SDS011;57073;45.650;9.612;2022-11-18T00:57:00;32.63;;;18.07;;
69795;SDS011;57073;45.650;9.612;2022-11-18T01:07:00;37.00;;;19.92;;
69795;SDS011;57073;45.650;9.612;2022-11-18T01:17:01;39.05;;;20.30;;
69795;SDS011;57073;45.650;9.612;2022-11-18T01:27:01;42.70;;;20.17;;
69795;SDS011;57073;45.650;9.612;2022-11-18T01:37:01;43.85;;;21.38;;
69795;SDS011;57073;45.650;9.612;2022-11-18T01:47:02;34.60;;;19.05;;
69795;SDS011;57073;45.650;9.612;2022-11-18T01:57:04;28.63;;;16.33;;
69795;SDS011;57073;45.650;9.612;2022-11-18T02:07:10;29.07;;;16.43;;
69795;SDS011;57073;45.650;9.612;2022-11-18T02:47:47;29.57;;;16.33;;
69795;SDS011;57073;45.650;9.612;2022-11-18T02:57:49;24.27;;;13.33;;
69795;SDS011;57073;45.650;9.612;2022-11-18T03:07:52;18.85;;;12.27;;
69795;SDS011;57073;45.650;9.612;2022-11-18T03:28:18;19.93;;;12.53;;
69795;SDS011;57073;45.650;9.612;2022-11-18T03:38:29;22.83;;;13.23;;
69795;SDS011;57073;45.650;9.612;2022-11-18T03:48:37;25.10;;;13.80;;
69795;SDS011;57073;45.650;9.612;2022-11-18T03:58:48;29.17;;;15.37;;
69795;SDS011;57073;45.650;9.612;2022-11-18T04:08:55;34.25;;;17.60;;
69795;SDS011;57073;45.650;9.612;2022-11-18T04:19:00;41.57;;;19.63;;
69795;SDS011;57073;45.650;9.612;2022-11-18T04:29:00;48.03;;;21.27;;
69795;SDS011;57073;45.650;9.612;2022-11-18T04:39:01;43.90;;;18.90;;
69795;SDS011;57073;45.650;9.612;2022-11-18T04:49:01;36.47;;;17.17;;
69795;SDS011;57073;45.650;9.612;2022-11-18T04:59:02;26.90;;;14.55;;
69795;SDS011;57073;45.650;9.612;2022-11-18T05:09:03;23.67;;;13.17;;
69795;SDS011;57073;45.650;9.612;2022-11-18T05:19:04;30.83;;;15.90;;
69795;SDS011;57073;45.650;9.612;2022-11-18T05:29:05;49.27;;;22.13;;
69795;SDS011;57073;45.650;9.612;2022-11-18T05:39:06;43.23;;;20.40;;
69795;SDS011;57073;45.650;9.612;2022-11-18T05:49:06;37.40;;;18.52;;
69795;SDS011;57073;45.650;9.612;2022-11-18T05:59:07;38.70;;;17.73;;
69795;SDS011;57073;45.650;9.612;2022-11-18T06:09:07;38.10;;;18.52;;
69795;SDS011;57073;45.650;9.612;2022-11-18T06:19:09;38.90;;;18.50;;
69795;SDS011;57073;45.650;9.612;2022-11-18T06:29:10;44.10;;;18.73;;
69795;SDS011;57073;45.650;9.612;2022-11-18T06:39:14;40.20;;;17.90;;
69795;SDS011;57073;45.650;9.612;2022-11-18T06:49:14;42.58;;;18.67;;
69795;SDS011;57073;45.650;9.612;2022-11-18T06:59:15;40.17;;;16.97;;
69795;SDS011;57073;45.650;9.612;2022-11-18T07:09:21;31.73;;;15.43;;
69795;SDS011;57073;45.650;9.612;2022-11-18T07:19:21;28.27;;;13.87;;
69795;SDS011;57073;45.650;9.612;2022-11-18T07:29:21;21.38;;;11.75;;
69795;SDS011;57073;45.650;9.612;2022-11-18T07:39:22;20.23;;;11.10;;
69795;SDS011;57073;45.650;9.612;2022-11-18T07:49:22;15.33;;;9.53;;
69795;SDS011;57073;45.650;9.612;2022-11-18T07:59:22;14.80;;;8.95;;
69795;SDS011;57073;45.650;9.612;2022-11-18T08:09:23;23.88;;;12.30;;
69795;SDS011;57073;45.650;9.612;2022-11-18T08:19:23;21.88;;;12.90;;
69795;SDS011;57073;45.650;9.612;2022-11-18T08:29:24;17.17;;;9.30;;
69795;SDS011;57073;45.650;9.612;2022-11-18T08:39:24;16.17;;;9.57;;
69795;SDS011;57073;45.650;9.612;2022-11-18T08:49:25;21.00;;;12.10;;
69795;SDS011;57073;45.650;9.612;2022-11-18T08:59:25;24.17;;;13.40;;
69795;SDS011;57073;45.650;9.612;2022-11-18T09:09:26;17.90;;;12.02;;
69795;SDS011;57073;45.650;9.612;2022-11-18T09:19:26;17.17;;;10.97;;
69795;SDS011;57073;45.650;9.612;2022-11-18T09:29:26;14.13;;;9.20;;
69795;SDS011;57073;45.650;9.612;2022-11-18T09:39:27;16.70;;;10.90;;
69795;SDS011;57073;45.650;9.612;2022-11-18T09:49:28;18.58;;;13.20;;
69795;SDS011;57073;45.650;9.612;2022-11-18T09:59:31;19.30;;;13.40;;
69795;SDS011;57073;45.650;9.612;2022-11-18T10:09:33;20.53;;;14.23;;
69795;SDS011;57073;45.650;9.612;2022-11-18T10:19:43;16.98;;;11.98;;
69795;SDS011;57073;45.650;9.612;2022-11-18T10:29:47;15.97;;;10.87;;
69795;SDS011;57073;45.650;9.612;2022-11-18T10:39:53;14.97;;;10.43;;
69795;SDS011;57073;45.650;9.612;2022-11-18T10:50:00;12.77;;;9.27;;
69795;SDS011;57073;45.650;9.612;2022-11-18T11:00:02;11.80;;;8.00;;
69795;SDS011;57073;45.650;9.612;2022-11-18T11:20:15;6.03;;;4.37;;
69795;SDS011;57073;45.650;9.612;2022-11-18T11:30:21;6.72;;;4.28;;
69795;SDS011;57073;45.650;9.612;2022-11-18T11:40:44;8.47;;;5.30;;
69795;SDS011;57073;45.650;9.612;2022-11-18T11:51:05;10.70;;;6.67;;
69795;SDS011;57073;45.650;9.612;2022-11-18T12:11:55;8.00;;;5.57;;
69795;SDS011;57073;45.650;9.612;2022-11-18T12:21:58;7.57;;;5.30;;
69795;SDS011;57073;45.650;9.612;2022-11-18T12:32:13;8.25;;;4.72;;
69795;SDS011;57073;45.650;9.612;2022-11-18T12:42:32;7.53;;;4.33;;
69795;SDS011;57073;45.650;9.612;2022-11-18T12:52:53;7.53;;;4.13;;
69795;SDS011;57073;45.650;9.612;2022-11-18T13:02:55;7.72;;;4.68;;
69795;SDS011;57073;45.650;9.612;2022-11-18T13:12:57;7.10;;;4.27;;
69795;SDS011;57073;45.650;9.612;2022-11-18T13:22:59;6.73;;;3.90;;
69795;SDS011;57073;45.650;9.612;2022-11-18T13:33:28;7.15;;;4.43;;
69795;SDS011;57073;45.650;9.612;2022-11-18T13:43:33;8.80;;;4.30;;
69795;SDS011;57073;45.650;9.612;2022-11-18T13:53:36;4.57;;;2.37;;
69795;SDS011;57073;45.650;9.612;2022-11-18T14:03:45;3.40;;;2.10;;
69795;SDS011;57073;45.650;9.612;2022-11-18T14:13:50;6.13;;;3.37;;
69795;SDS011;57073;45.650;9.612;2022-11-18T14:23:53;7.57;;;4.17;;
69795;SDS011;57073;45.650;9.612;2022-11-18T14:44:24;15.57;;;8.45;;
69795;SDS011;57073;45.650;9.612;2022-11-18T14:54:25;17.17;;;8.70;;
69795;SDS011;57073;45.650;9.612;2022-11-18T15:04:26;18.58;;;9.23;;
69795;SDS011;57073;45.650;9.612;2022-11-18T15:14:26;19.17;;;9.53;;
69795;SDS011;57073;45.650;9.612;2022-11-18T15:24:27;18.40;;;9.53;;
69795;SDS011;57073;45.650;9.612;2022-11-18T15:34:27;19.25;;;9.68;;
69795;SDS011;57073;45.650;9.612;2022-11-18T15:44:27;17.73;;;9.40;;
69795;SDS011;57073;45.650;9.612;2022-11-18T15:54:28;18.10;;;9.48;;
69795;SDS011;57073;45.650;9.612;2022-11-18T16:04:28;16.00;;;9.03;;
69795;SDS011;57073;45.650;9.612;2022-11-18T16:14:28;21.35;;;10.70;;
69795;SDS011;57073;45.650;9.612;2022-11-18T16:24:29;21.25;;;10.80;;
69795;SDS011;57073;45.650;9.612;2022-11-18T16:34:29;23.13;;;11.37;;
69795;SDS011;57073;45.650;9.612;2022-11-18T16:44:30;20.00;;;10.87;;
69795;SDS011;57073;45.650;9.612;2022-11-18T16:54:30;22.40;;;12.95;;
69795;SDS011;57073;45.650;9.612;2022-11-18T17:04:32;21.48;;;11.23;;
69795;SDS011;57073;45.650;9.612;2022-11-18T17:14:35;23.97;;;12.83;;
69795;SDS011;57073;45.650;9.612;2022-11-18T17:24:37;30.40;;;14.03;;
69795;SDS011;57073;45.650;9.612;2022-11-18T17:34:37;24.50;;;12.98;;
69795;SDS011;57073;45.650;9.612;2022-11-18T17:44:37;24.77;;;14.27;;
69795;SDS011;57073;45.650;9.612;2022-11-18T17:54:38;21.30;;;11.57;;
69795;SDS011;57073;45.650;9.612;2022-11-18T18:04:38;23.95;;;11.02;;
69795;SDS011;57073;45.650;9.612;2022-11-18T18:14:38;23.42;;;12.80;;
69795;SDS011;57073;45.650;9.612;2022-11-18T18:24:39;21.03;;;10.70;;
69795;SDS011;57073;45.650;9.612;2022-11-18T18:34:39;18.70;;;9.37;;
69795;SDS011;57073;45.650;9.612;2022-11-18T18:44:39;18.98;;;11.30;;
69795;SDS011;57073;45.650;9.612;2022-11-18T18:54:58;18.57;;;11.00;;
69795;SDS011;57073;45.650;9.612;2022-11-18T19:04:59;15.85;;;7.88;;
69795;SDS011;57073;45.650;9.612;2022-11-18T19:14:59;14.88;;;8.52;;
69795;SDS011;57073;45.650;9.612;2022-11-18T19:24:59;16.00;;;9.63;;
69795;SDS011;57073;45.650;9.612;2022-11-18T19:35:00;8.18;;;4.90;;
69795;SDS011;57073;45.650;9.612;2022-11-18T19:45:04;5.80;;;3.25;;
69795;SDS011;57073;45.650;9.612;2022-11-18T19:55:05;5.67;;;2.77;;
69795;SDS011;57073;45.650;9.612;2022-11-18T20:05:06;4.63;;;2.90;;
69795;SDS011;57073;45.650;9.612;2022-11-18T20:15:25;4.63;;;1.97;;
69795;SDS011;57073;45.650;9.612;2022-11-18T20:25:26;3.30;;;2.00;;
69795;SDS011;57073;45.650;9.612;2022-11-18T20:35:26;5.00;;;2.27;;
69795;SDS011;57073;45.650;9.612;2022-11-18T20:45:28;4.50;;;2.03;;
69795;SDS011;57073;45.650;9.612;2022-11-18T20:55:28;3.80;;;1.77;;
69795;SDS011;57073;45.650;9.612;2022-11-18T21:05:29;3.73;;;2.17;;
69795;SDS011;57073;45.650;9.612;2022-11-18T21:15:30;7.10;;;2.90;;
69795;SDS011;57073;45.650;9.612;2022-11-18T21:25:30;4.57;;;2.40;;
69795;SDS011;57073;45.650;9.612;2022-11-18T21:35:31;7.00;;;3.73;;
69795;SDS011;57073;45.650;9.612;2022-11-18T21:45:32;7.00;;;3.27;;
69795;SDS011;57073;45.650;9.612;2022-11-18T21:55:32;7.80;;;4.18;;
69795;SDS011;57073;45.650;9.612;2022-11-18T22:05:33;10.32;;;5.78;;
69795;SDS011;57073;45.650;9.612;2022-11-18T22:15:33;9.40;;;4.50;;
69795;SDS011;57073;45.650;9.612;2022-11-18T22:25:33;8.30;;;5.10;;
69795;SDS011;57073;45.650;9.612;2022-11-18T22:35:34;7.75;;;3.40;;
69795;SDS011;57073;45.650;9.612;2022-11-18T22:45:34;5.87;;;3.37;;
69795;SDS011;57073;45.650;9.612;2022-11-18T22:55:34;4.97;;;2.22;;
69795;SDS011;57073;45.650;9.612;2022-11-18T23:05:35;3.30;;;2.00;;
69795;SDS011;57073;45.650;9.612;2022-11-18T23:15:35;4.35;;;1.65;;
69795;SDS011;57073;45.650;9.612;2022-11-18T23:25:36;5.03;;;1.90;;
69795;SDS011;57073;45.650;9.612;2022-11-18T23:35:36;5.20;;;1.90;;
69795;SDS011;57073;45.650;9.612;2022-11-18T23:45:37;5.88;;;1.90;;
69795;SDS011;57073;45.650;9.612;2022-11-18T23:55:37;4.60;;;2.00;;
